Time;durP1;ratioP1;P1;durP2;ratioP2;P2;SDS_P1;SDS_P2;PMS_P1;PMS_P2;Temp;Humidity;BMP_temperature;BMP_pressure;BME280_temperature;BME280_humidity;BME280_pressure;Samples;Min_cycle;Max_cycle;Signal;HPM_P1;HPM_P2
2021/10/22 00:00:23;;;;;;;3.07;1.07;;;8.50;99.90;;;;;;5024384;28;20464;-73
2021/10/22 00:02:49;;;;;;;3.37;1.60;;;8.50;99.90;;;;;;5017615;28;20247;-73
2021/10/22 00:05:16;;;;;;;7.53;1.37;;;8.50;99.90;;;;;;5011445;28;21008;-71
2021/10/22 00:07:42;;;;;;;1.60;0.90;;;8.40;99.90;;;;;;5025495;28;20478;-73
2021/10/22 00:10:08;;;;;;;1.60;1.40;;;8.40;99.90;;;;;;5027191;28;20217;-71
2021/10/22 00:12:34;;;;;;;1.63;1.53;;;8.30;99.90;;;;;;5026046;28;20525;-74
2021/10/22 00:15:00;;;;;;;4.63;1.50;;;8.20;99.90;;;;;;5024816;28;20966;-73
2021/10/22 00:17:26;;;;;;;1.27;1.13;;;8.20;99.90;;;;;;5009178;28;20543;-72
2021/10/22 00:19:51;;;;;;;3.73;1.60;;;8.10;99.90;;;;;;5010990;28;20266;-73
2021/10/22 00:22:17;;;;;;;3.07;1.20;;;8.10;99.90;;;;;;5028731;28;20231;-72
2021/10/22 00:24:43;;;;;;;3.63;1.90;;;8.00;99.90;;;;;;5026973;28;20240;-73
2021/10/22 00:27:08;;;;;;;4.90;1.63;;;8.00;99.90;;;;;;5031346;28;20301;-72
2021/10/22 00:29:36;;;;;;;1.40;1.30;;;7.90;99.90;;;;;;5028927;28;20216;-73
2021/10/22 00:32:01;;;;;;;4.07;1.57;;;7.90;99.90;;;;;;5014624;28;20459;-73
2021/10/22 00:34:28;;;;;;;1.60;1.40;;;7.90;99.90;;;;;;5026026;28;20255;-73
2021/10/22 00:36:54;;;;;;;2.10;1.20;;;7.90;99.90;;;;;;5014281;28;20220;-73
2021/10/22 00:39:20;;;;;;;1.77;1.50;;;7.90;99.90;;;;;;5030911;28;20478;-72
2021/10/22 00:41:47;;;;;;;1.23;1.13;;;7.80;99.90;;;;;;5024748;28;20212;-73
2021/10/22 00:44:13;;;;;;;1.60;1.50;;;7.70;99.90;;;;;;5030933;28;20454;-72
2021/10/22 00:46:41;;;;;;;1.80;1.70;;;7.70;99.90;;;;;;5029715;28;20447;-72
2021/10/22 00:49:12;;;;;;;7.67;1.77;;;7.70;99.90;;;;;;5014380;28;20463;-72
2021/10/22 00:51:38;;;;;;;1.73;1.23;;;7.60;99.90;;;;;;5024730;28;20456;-72
2021/10/22 00:54:05;;;;;;;5.33;1.60;;;7.60;99.90;;;;;;5030247;28;20478;-74
2021/10/22 00:56:32;;;;;;;2.17;2.00;;;7.50;99.90;;;;;;5012954;28;20926;-72
2021/10/22 00:58:58;;;;;;;1.93;1.80;;;7.50;99.90;;;;;;5030790;28;20478;-73
2021/10/22 01:01:24;;;;;;;4.27;1.80;;;7.40;99.90;;;;;;5023254;28;20540;-73
2021/10/22 01:03:49;;;;;;;5.03;1.50;;;7.40;99.90;;;;;;5014205;28;20479;-72
2021/10/22 01:06:15;;;;;;;3.00;1.77;;;7.40;99.90;;;;;;5014338;28;20221;-72
2021/10/22 01:08:42;;;;;;;4.33;1.70;;;7.40;99.90;;;;;;5028526;28;20671;-73
2021/10/22 01:11:09;;;;;;;1.70;1.60;;;7.40;99.90;;;;;;5014303;28;20263;-72
2021/10/22 01:13:36;;;;;;;3.80;1.60;;;7.40;99.90;;;;;;5029233;28;20462;-72
2021/10/22 01:16:02;;;;;;;1.93;1.77;;;7.40;99.90;;;;;;5013984;28;20537;-73
2021/10/22 01:18:29;;;;;;;2.10;1.50;;;7.50;99.90;;;;;;5002970;28;20820;-72
2021/10/22 01:21:01;;;;;;;6.40;1.80;;;7.60;99.90;;;;;;5011998;28;20451;-71
2021/10/22 01:23:27;;;;;;;2.40;1.20;;;7.60;99.90;;;;;;5030364;28;20462;-74
2021/10/22 01:25:53;;;;;;;4.40;1.73;;;7.60;99.90;;;;;;5009998;28;20865;-72
2021/10/22 01:28:20;;;;;;;3.90;1.43;;;7.60;99.90;;;;;;5010454;28;20472;-72
2021/10/22 01:30:47;;;;;;;4.03;1.70;;;7.60;99.90;;;;;;5021364;28;20463;-72
2021/10/22 01:33:17;;;;;;;7.03;1.37;;;7.60;99.90;;;;;;5024154;28;20478;-70
2021/10/22 01:35:46;;;;;;;4.10;1.70;;;7.60;99.90;;;;;;5028292;28;20455;-72
2021/10/22 01:38:15;;;;;;;4.30;2.00;;;7.60;99.90;;;;;;5013048;28;20512;-72
2021/10/22 01:40:41;;;;;;;4.17;1.67;;;7.60;99.90;;;;;;5028398;28;20562;-71
2021/10/22 01:43:07;;;;;;;3.27;1.70;;;7.60;99.90;;;;;;5013421;28;20890;-72
2021/10/22 01:45:33;;;;;;;1.30;1.20;;;7.70;99.90;;;;;;5008652;28;20460;-71
2021/10/22 01:47:58;;;;;;;4.30;1.47;;;7.70;99.90;;;;;;5009879;28;20213;-72
2021/10/22 01:50:24;;;;;;;1.93;1.73;;;7.70;99.90;;;;;;5008532;28;20264;-73
2021/10/22 01:52:50;;;;;;;3.50;1.37;;;7.80;99.90;;;;;;5011819;28;20491;-72
2021/10/22 01:55:16;;;;;;;3.80;2.10;;;7.80;99.90;;;;;;5013296;28;20220;-70
2021/10/22 01:57:42;;;;;;;7.00;1.90;;;7.70;99.90;;;;;;5011657;28;20596;-72
2021/10/22 02:00:08;;;;;;;7.40;2.27;;;7.80;99.90;;;;;;5011357;28;20224;-70
2021/10/22 02:02:43;;;;;;;1.87;1.77;;;7.80;99.90;;;;;;5028115;28;20490;-72
2021/10/22 02:05:08;;;;;;;2.03;1.73;;;7.80;99.90;;;;;;5008759;28;20516;-72
2021/10/22 02:07:34;;;;;;;5.37;1.77;;;7.80;99.90;;;;;;5027738;28;20216;-72
2021/10/22 02:10:00;;;;;;;3.20;2.10;;;7.80;99.90;;;;;;5012925;28;20705;-72
2021/10/22 02:12:27;;;;;;;4.07;2.63;;;7.80;99.90;;;;;;5009416;28;20490;-72
2021/10/22 02:14:53;;;;;;;6.10;2.07;;;7.80;99.90;;;;;;5030732;28;20278;-72
2021/10/22 02:17:19;;;;;;;2.07;1.60;;;7.80;99.90;;;;;;5012630;28;20479;-72
2021/10/22 02:19:45;;;;;;;5.73;1.93;;;7.80;99.90;;;;;;5014552;28;20221;-72
2021/10/22 02:22:11;;;;;;;3.63;1.60;;;7.70;99.90;;;;;;5029214;28;20228;-69
2021/10/22 02:24:37;;;;;;;4.73;1.40;;;7.60;99.90;;;;;;5011373;28;20478;-72
2021/10/22 02:27:03;;;;;;;7.83;1.70;;;7.60;99.90;;;;;;5023345;28;20228;-72
2021/10/22 02:29:29;;;;;;;4.67;1.60;;;7.60;99.90;;;;;;5027372;28;20860;-72
2021/10/22 02:31:55;;;;;;;7.10;1.47;;;7.60;99.90;;;;;;5030236;28;20282;-72
2021/10/22 02:34:21;;;;;;;4.87;1.80;;;7.50;99.90;;;;;;5023940;28;20694;-72
2021/10/22 02:36:49;;;;;;;3.73;1.77;;;7.50;99.90;;;;;;5009730;28;20471;-72
2021/10/22 02:39:15;;;;;;;6.57;1.77;;;7.40;99.90;;;;;;5011471;28;20515;-71
2021/10/22 02:41:41;;;;;;;4.63;2.13;;;7.30;99.90;;;;;;5025722;28;20448;-72
2021/10/22 02:44:07;;;;;;;1.80;1.70;;;7.20;99.90;;;;;;5010898;28;20502;-72
2021/10/22 02:46:36;;;;;;;6.60;2.63;;;7.10;99.90;;;;;;5008340;28;20224;-72
2021/10/22 02:49:02;;;;;;;2.63;1.50;;;7.10;99.90;;;;;;5027003;28;20459;-72
2021/10/22 02:51:28;;;;;;;6.83;2.20;;;7.10;99.90;;;;;;5025571;28;20470;-72
2021/10/22 02:53:54;;;;;;;5.60;2.03;;;7.10;99.90;;;;;;5027358;28;20462;-72
2021/10/22 02:56:20;;;;;;;3.43;1.87;;;7.00;99.90;;;;;;5026709;28;20477;-71
2021/10/22 02:58:47;;;;;;;3.83;1.80;;;7.00;99.90;;;;;;5026856;28;20455;-72
2021/10/22 03:01:12;;;;;;;2.90;1.30;;;6.90;99.90;;;;;;5026629;28;20483;-73
2021/10/22 03:03:38;;;;;;;3.37;1.73;;;6.90;99.90;;;;;;5008899;28;20466;-72
2021/10/22 03:06:04;;;;;;;5.17;2.03;;;6.80;99.90;;;;;;5026494;28;20227;-71
2021/10/22 03:08:29;;;;;;;3.80;1.57;;;6.70;99.90;;;;;;5009101;28;20235;-71
2021/10/22 03:10:55;;;;;;;4.03;1.77;;;6.70;99.90;;;;;;5019986;28;20307;-72
2021/10/22 03:13:21;;;;;;;3.03;1.90;;;6.60;99.90;;;;;;5009653;28;20209;-72
2021/10/22 03:15:46;;;;;;;2.40;1.60;;;6.60;99.90;;;;;;5017321;28;20690;-72
2021/10/22 03:18:12;;;;;;;4.20;1.80;;;6.60;99.90;;;;;;5025763;28;20320;-72
2021/10/22 03:20:38;;;;;;;6.47;1.77;;;6.50;99.90;;;;;;5024454;28;20299;-72
2021/10/22 03:23:04;;;;;;;3.80;2.10;;;6.50;99.90;;;;;;5026148;28;20208;-71
2021/10/22 03:25:30;;;;;;;4.67;1.63;;;6.50;99.90;;;;;;5024494;28;20227;-72
2021/10/22 03:28:03;;;;;;;4.10;2.00;;;6.40;99.90;;;;;;5026711;28;20475;-72
2021/10/22 03:30:30;;;;;;;1.43;1.10;;;6.40;99.90;;;;;;5008066;28;20469;-72
2021/10/22 03:32:56;;;;;;;10.83;1.90;;;6.40;99.90;;;;;;5009117;28;21008;-71
2021/10/22 03:35:22;;;;;;;4.40;2.43;;;6.40;99.90;;;;;;5025519;28;20466;-72
2021/10/22 03:37:47;;;;;;;3.23;2.03;;;6.40;99.90;;;;;;5023639;28;20647;-72
2021/10/22 03:40:13;;;;;;;9.40;2.10;;;6.40;99.90;;;;;;5022007;28;20225;-72
2021/10/22 03:42:38;;;;;;;1.97;1.77;;;6.40;99.90;;;;;;5003733;28;20221;-71
2021/10/22 03:45:05;;;;;;;2.60;1.57;;;6.30;99.90;;;;;;5024227;28;20220;-72
2021/10/22 03:47:30;;;;;;;3.43;2.00;;;6.30;99.90;;;;;;5024214;28;20216;-72
2021/10/22 03:49:56;;;;;;;1.53;1.30;;;6.30;99.90;;;;;;5025462;28;20516;-72
2021/10/22 03:52:22;;;;;;;1.60;1.50;;;6.30;99.90;;;;;;5009744;28;20291;-72
2021/10/22 03:54:48;;;;;;;2.80;1.30;;;6.30;99.90;;;;;;5007591;28;20487;-70
2021/10/22 03:57:14;;;;;;;4.30;1.80;;;6.30;99.90;;;;;;5024697;28;20232;-72
2021/10/22 03:59:39;;;;;;;5.43;1.97;;;6.30;99.90;;;;;;5024127;28;20503;-74
2021/10/22 04:02:05;;;;;;;2.20;1.70;;;6.30;99.90;;;;;;5008519;28;20224;-72
2021/10/22 04:04:31;;;;;;;14.67;3.47;;;6.30;99.90;;;;;;5023907;28;20228;-73
2021/10/22 04:06:57;;;;;;;5.37;2.37;;;6.30;99.90;;;;;;5008504;28;20224;-72
2021/10/22 04:09:26;;;;;;;6.97;2.23;;;6.30;99.90;;;;;;5025596;28;20298;-72
2021/10/22 04:11:53;;;;;;;3.63;1.83;;;6.20;99.90;;;;;;5007943;28;20228;-72
2021/10/22 04:14:20;;;;;;;1.90;1.40;;;6.20;99.90;;;;;;5024555;28;20482;-72
2021/10/22 04:16:46;;;;;;;3.97;1.63;;;6.10;99.90;;;;;;5022314;28;20478;-71
2021/10/22 04:19:12;;;;;;;8.07;2.10;;;6.10;99.90;;;;;;4993895;28;20476;-71
2021/10/22 04:21:38;;;;;;;3.17;1.77;;;6.10;99.90;;;;;;5006580;28;20538;-72
2021/10/22 04:24:04;;;;;;;2.50;2.30;;;6.10;99.90;;;;;;5024813;28;20248;-71
2021/10/22 04:26:30;;;;;;;2.27;1.90;;;6.10;99.90;;;;;;5006953;28;20225;-72
2021/10/22 04:28:55;;;;;;;5.90;2.43;;;6.10;99.90;;;;;;5003754;28;20299;-72
2021/10/22 04:31:21;;;;;;;3.23;1.90;;;6.10;99.90;;;;;;5008048;28;20840;-72
2021/10/22 04:33:47;;;;;;;4.30;2.33;;;6.10;99.90;;;;;;5003560;28;20659;-72
2021/10/22 04:36:13;;;;;;;4.23;1.70;;;6.00;99.90;;;;;;5004095;28;20225;-72
2021/10/22 04:41:23;;;;;;;3.33;2.40;;;5.90;99.90;;;;;;5021112;28;20897;-72
2021/10/22 04:43:51;;;;;;;2.67;2.00;;;6.00;99.90;;;;;;5007742;28;20582;-72
2021/10/22 04:46:17;;;;;;;1.47;1.37;;;6.00;99.90;;;;;;5018688;28;20228;-71
2021/10/22 04:48:44;;;;;;;3.13;1.20;;;6.00;99.90;;;;;;5006354;28;20592;-72
2021/10/22 04:51:10;;;;;;;3.83;1.57;;;6.00;99.90;;;;;;5003290;28;20447;-71
2021/10/22 04:53:36;;;;;;;2.20;1.77;;;6.00;99.90;;;;;;5022754;28;20477;-73
2021/10/22 04:56:02;;;;;;;2.47;2.23;;;6.10;99.90;;;;;;5007776;28;20224;-74
2021/10/22 04:58:27;;;;;;;4.47;1.70;;;6.00;99.90;;;;;;5006150;28;20225;-72
2021/10/22 05:00:53;;;;;;;5.03;2.20;;;6.10;99.90;;;;;;5018533;28;20745;-73
2021/10/22 05:03:19;;;;;;;4.40;1.97;;;6.00;99.90;;;;;;5024162;28;20235;-72
2021/10/22 05:05:45;;;;;;;3.10;1.90;;;6.00;99.90;;;;;;5017862;28;20268;-72
2021/10/22 05:08:13;;;;;;;7.23;1.90;;;6.00;99.90;;;;;;5041996;23;21085;-74
2021/10/22 05:10:39;;;;;;;5.53;1.60;;;5.90;99.90;;;;;;5021472;28;20551;-73
2021/10/22 05:13:04;;;;;;;1.77;1.67;;;5.90;99.90;;;;;;5013999;28;20452;-72
2021/10/22 05:15:33;;;;;;;2.90;1.70;;;5.90;99.90;;;;;;5030211;28;20232;-73
2021/10/22 05:17:59;;;;;;;2.40;1.30;;;5.90;99.90;;;;;;5004319;28;20240;-74
2021/10/22 05:20:24;;;;;;;3.87;1.77;;;5.80;99.90;;;;;;5026059;28;20905;-75
2021/10/22 05:22:59;;;;;;;2.03;1.60;;;5.80;99.90;;;;;;5012409;28;20220;-73
2021/10/22 05:25:24;;;;;;;2.80;1.90;;;5.80;99.90;;;;;;5013134;28;20219;-73
2021/10/22 05:27:50;;;;;;;3.00;1.50;;;5.80;99.90;;;;;;5006316;28;20903;-73
2021/10/22 05:30:18;;;;;;;3.57;1.73;;;5.80;99.90;;;;;;5015016;28;20346;-73
2021/10/22 05:32:45;;;;;;;9.60;2.40;;;5.70;99.90;;;;;;5029430;28;20454;-73
2021/10/22 05:35:12;;;;;;;2.40;1.60;;;5.70;99.90;;;;;;5013636;28;20700;-73
2021/10/22 05:37:38;;;;;;;1.87;1.77;;;5.70;99.90;;;;;;5038085;28;20462;-73
2021/10/22 05:40:05;;;;;;;4.20;2.33;;;5.70;99.90;;;;;;5047235;28;20474;-73
2021/10/22 05:42:31;;;;;;;2.47;1.47;;;5.70;99.90;;;;;;5005717;28;20551;-72
2021/10/22 05:44:57;;;;;;;3.77;1.60;;;5.70;99.90;;;;;;5011277;28;20471;-72
2021/10/22 05:47:23;;;;;;;7.73;2.23;;;5.70;99.90;;;;;;5007586;28;20466;-75
2021/10/22 05:49:49;;;;;;;2.90;1.40;;;5.70;99.90;;;;;;5040685;28;20243;-73
2021/10/22 05:52:16;;;;;;;3.10;1.23;;;5.70;99.90;;;;;;5028346;28;20499;-73
2021/10/22 05:54:43;;;;;;;3.33;1.97;;;5.70;99.90;;;;;;5025286;28;20220;-73
2021/10/22 05:57:09;;;;;;;5.53;2.03;;;5.70;99.90;;;;;;5005391;28;20554;-73
2021/10/22 05:59:35;;;;;;;6.37;2.10;;;5.70;99.90;;;;;;5025247;28;20545;-74
2021/10/22 06:02:00;;;;;;;8.77;2.00;;;5.80;99.90;;;;;;5028539;28;20296;-73
2021/10/22 06:04:26;;;;;;;5.30;1.67;;;5.70;99.90;;;;;;5043180;28;20224;-75
2021/10/22 06:06:52;;;;;;;5.40;2.13;;;5.70;99.90;;;;;;5030866;28;20583;-72
2021/10/22 06:09:17;;;;;;;2.37;2.17;;;5.70;99.90;;;;;;5039587;28;20235;-73
2021/10/22 06:11:43;;;;;;;2.67;2.43;;;5.70;99.90;;;;;;5008977;28;20300;-73
2021/10/22 06:14:09;;;;;;;5.20;2.23;;;5.70;99.90;;;;;;4996041;28;20239;-73
2021/10/22 06:16:35;;;;;;;11.63;2.30;;;5.80;99.90;;;;;;5007028;28;20228;-75
2021/10/22 06:19:04;;;;;;;1.90;1.67;;;5.90;99.90;;;;;;4991726;28;20279;-72
2021/10/22 06:24:02;;;;;;;2.93;1.80;;;5.90;99.90;;;;;;5022931;28;20455;-73
2021/10/22 06:26:32;;;;;;;7.07;2.23;;;6.00;99.90;;;;;;5026406;28;20454;-73
2021/10/22 06:28:59;;;;;;;2.73;1.87;;;6.00;99.90;;;;;;5005930;28;20455;-72
2021/10/22 06:31:24;;;;;;;4.07;2.10;;;6.00;99.90;;;;;;4993537;28;20473;-73
2021/10/22 06:33:51;;;;;;;4.87;1.70;;;6.10;99.90;;;;;;5016779;28;20466;-74
2021/10/22 06:36:17;;;;;;;3.77;1.70;;;6.10;99.90;;;;;;5012853;28;20316;-73
2021/10/22 06:38:42;;;;;;;2.90;1.83;;;6.20;99.90;;;;;;5012251;28;20479;-73
2021/10/22 06:41:08;;;;;;;2.73;1.63;;;6.20;99.90;;;;;;5009567;28;20485;-73
2021/10/22 06:43:38;;;;;;;2.40;2.00;;;6.20;99.90;;;;;;5009291;28;20220;-75
2021/10/22 06:46:05;;;;;;;5.87;2.57;;;6.30;99.90;;;;;;5007752;28;20466;-74
2021/10/22 06:48:31;;;;;;;1.80;1.53;;;6.30;99.90;;;;;;5008194;28;20880;-74
2021/10/22 06:50:57;;;;;;;5.10;1.50;;;6.30;99.90;;;;;;4995395;28;20521;-73
2021/10/22 06:53:23;;;;;;;6.27;1.53;;;6.20;99.90;;;;;;5026485;28;20227;-74
2021/10/22 06:55:49;;;;;;;2.20;1.50;;;6.10;99.90;;;;;;5009999;28;20451;-73
2021/10/22 06:58:15;;;;;;;2.00;1.80;;;6.10;99.90;;;;;;5024315;28;20226;-72
2021/10/22 07:00:44;;;;;;;7.00;1.80;;;6.00;99.90;;;;;;5036213;28;20470;-75
2021/10/22 07:03:15;;;;;;;4.03;2.60;;;6.00;99.90;;;;;;5010027;28;20221;-73
2021/10/22 07:08:12;;;;;;;2.40;1.63;;;6.00;99.90;;;;;;5012723;28;20485;-73
2021/10/22 07:10:39;;;;;;;1.60;1.50;;;6.00;99.90;;;;;;5014792;28;20454;-74
2021/10/22 07:13:05;;;;;;;8.20;2.50;;;6.00;99.90;;;;;;5009889;28;20222;-74
2021/10/22 07:15:31;;;;;;;6.43;2.23;;;6.00;99.90;;;;;;5006438;28;20467;-75
2021/10/22 07:17:59;;;;;;;3.90;1.90;;;5.90;99.90;;;;;;4999969;28;20509;-74
2021/10/22 07:20:29;;;;;;;6.27;2.60;;;6.00;99.90;;;;;;5002625;28;20513;-74
2021/10/22 07:23:03;;;;;;;6.53;1.73;;;6.00;99.90;;;;;;5010258;28;20477;-74
2021/10/22 07:25:30;;;;;;;2.10;1.83;;;6.00;99.90;;;;;;5025336;28;20466;-73
2021/10/22 07:27:55;;;;;;;13.20;2.30;;;6.00;99.90;;;;;;5004769;28;20831;-74
2021/10/22 07:30:21;;;;;;;3.50;2.40;;;6.00;99.90;;;;;;4994394;28;20517;-73
2021/10/22 07:32:47;;;;;;;5.23;2.13;;;6.10;99.90;;;;;;5004687;28;20286;-73
2021/10/22 07:35:15;;;;;;;6.73;3.40;;;6.10;99.90;;;;;;5030437;28;20251;-73
2021/10/22 07:37:41;;;;;;;9.43;5.23;;;6.10;99.90;;;;;;4993609;28;20471;-72
2021/10/22 07:40:08;;;;;;;7.67;4.97;;;6.20;99.90;;;;;;4994858;28;20524;-75
2021/10/22 07:42:34;;;;;;;8.30;5.40;;;6.20;99.90;;;;;;5019800;28;20462;-75
2021/10/22 07:45:02;;;;;;;10.30;5.67;;;6.20;99.90;;;;;;5009069;28;20450;-74
2021/10/22 07:47:31;;;;;;;7.63;3.57;;;6.30;99.90;;;;;;5001076;28;20470;-74
2021/10/22 07:49:57;;;;;;;7.27;3.40;;;6.30;99.90;;;;;;5008254;28;20463;-73
2021/10/22 07:52:25;;;;;;;6.00;3.20;;;6.40;99.90;;;;;;5006644;28;20466;-74
2021/10/22 07:54:51;;;;;;;4.97;3.73;;;6.40;99.90;;;;;;5015458;28;20223;-75
2021/10/22 07:57:18;;;;;;;7.07;3.57;;;6.40;99.90;;;;;;4991879;28;20471;-74
2021/10/22 07:59:45;;;;;;;6.10;5.00;;;6.50;99.90;;;;;;5009977;28;20451;-74
2021/10/22 08:02:12;;;;;;;16.83;11.73;;;6.60;99.90;;;;;;5012962;28;20582;-74
2021/10/22 08:04:39;;;;;;;11.03;6.57;;;6.60;99.90;;;;;;5007301;28;20474;-74
2021/10/22 08:07:05;;;;;;;15.23;6.93;;;6.70;99.90;;;;;;4995633;28;20451;-74
2021/10/22 08:09:31;;;;;;;10.50;7.37;;;6.70;99.90;;;;;;4991199;28;20837;-73
2021/10/22 08:11:56;;;;;;;12.37;7.20;;;6.80;99.90;;;;;;4994137;28;20212;-74
2021/10/22 08:14:22;;;;;;;97.30;38.93;;;6.80;99.90;;;;;;5010801;28;20510;-74
2021/10/22 08:16:48;;;;;;;63.93;30.53;;;6.90;99.90;;;;;;5022619;28;20315;-74
2021/10/22 08:19:15;;;;;;;20.90;10.70;;;7.00;99.90;;;;;;5012583;28;20332;-74
2021/10/22 08:24:07;;;;;;;91.07;46.43;;;7.10;99.90;;;;;;5025211;28;20462;-73
2021/10/22 08:26:33;;;;;;;65.03;35.07;;;7.20;99.90;;;;;;5004076;28;20306;-74
2021/10/22 08:28:59;;;;;;;32.07;19.73;;;7.20;99.90;;;;;;5023407;28;20494;-74
2021/10/22 08:31:25;;;;;;;14.70;9.20;;;7.30;99.90;;;;;;5012499;28;20224;-73
2021/10/22 08:33:51;;;;;;;16.43;8.70;;;7.40;99.90;;;;;;4991814;28;20228;-74
2021/10/22 08:36:17;;;;;;;21.03;10.03;;;7.40;99.90;;;;;;4996553;28;20486;-74
2021/10/22 08:38:43;;;;;;;33.10;19.10;;;7.50;99.90;;;;;;5024031;28;20462;-74
2021/10/22 08:41:13;;;;;;;90.37;39.27;;;7.60;99.90;;;;;;5008611;28;20216;-74
2021/10/22 08:43:40;;;;;;;54.07;28.10;;;7.80;99.90;;;;;;5012967;28;20220;-74
2021/10/22 08:46:11;;;;;;;11.57;8.83;;;7.90;99.90;;;;;;5000307;28;20451;-76
2021/10/22 08:48:37;;;;;;;5.20;3.27;;;8.00;99.90;;;;;;5015182;28;20844;-73
2021/10/22 08:51:04;;;;;;;3.23;2.00;;;8.00;99.90;;;;;;4994257;28;20830;-73
2021/10/22 08:53:31;;;;;;;4.50;1.80;;;8.20;99.90;;;;;;4992046;28;20979;-72
2021/10/22 08:55:58;;;;;;;2.30;1.87;;;8.30;99.90;;;;;;5002303;28;20826;-74
2021/10/22 08:58:24;;;;;;;3.33;1.57;;;8.40;99.90;;;;;;5015456;28;20467;-72
2021/10/22 09:00:51;;;;;;;4.33;1.63;;;8.40;99.90;;;;;;4993753;28;20530;-73
2021/10/22 09:03:18;;;;;;;3.20;1.77;;;8.50;99.90;;;;;;4997722;28;20874;-74
2021/10/22 09:05:57;;;;;;;3.67;2.30;;;8.50;99.90;;;;;;5006136;28;20562;-73
2021/10/22 09:08:35;;;;;;;3.40;1.83;;;8.60;99.90;;;;;;4992829;28;20471;-74
2021/10/22 09:11:03;;;;;;;2.37;1.53;;;8.70;99.90;;;;;;5017975;28;20557;-74
2021/10/22 09:13:30;;;;;;;3.60;1.30;;;8.70;99.90;;;;;;5010805;28;20904;-73
2021/10/22 09:15:58;;;;;;;2.40;1.50;;;8.80;99.90;;;;;;5026472;28;20462;-73
2021/10/22 09:18:29;;;;;;;2.77;2.10;;;8.80;99.90;;;;;;5006634;28;20497;-73
2021/10/22 09:21:02;;;;;;;4.67;1.50;;;8.90;99.90;;;;;;5010677;28;20446;-73
2021/10/22 09:23:38;;;;;;;16.63;1.83;;;9.00;99.90;;;;;;5010285;28;20450;-73
2021/10/22 09:26:20;;;;;;;1.97;1.17;;;9.00;99.90;;;;;;5022638;28;20469;-74
2021/10/22 09:28:47;;;;;;;8.63;1.70;;;9.20;99.90;;;;;;5012773;28;20458;-73
2021/10/22 09:31:20;;;;;;;5.33;1.67;;;9.30;99.90;;;;;;5007514;28;20558;-71
2021/10/22 09:33:52;;;;;;;3.87;1.60;;;9.30;99.90;;;;;;4992875;28;21232;-76
2021/10/22 09:36:36;;;;;;;2.97;1.20;;;9.40;99.90;;;;;;5035715;28;20537;-74
2021/10/22 09:39:08;;;;;;;23.70;10.70;;;9.40;99.90;;;;;;4991089;28;20475;-74
2021/10/22 09:41:46;;;;;;;25.27;13.07;;;9.50;99.90;;;;;;5016158;28;20465;-73
2021/10/22 09:44:23;;;;;;;9.23;6.13;;;9.70;99.90;;;;;;4990926;28;20533;-74
2021/10/22 09:47:05;;;;;;;26.33;13.27;;;9.70;99.90;;;;;;4998492;28;20453;-74
2021/10/22 09:49:32;;;;;;;30.20;14.50;;;9.80;99.90;;;;;;5006186;28;20660;-74
2021/10/22 09:52:00;;;;;;;30.30;15.73;;;9.90;99.90;;;;;;5026950;28;20981;-75
2021/10/22 09:54:31;;;;;;;16.70;10.53;;;10.00;99.90;;;;;;5024636;28;20468;-75
2021/10/22 09:56:58;;;;;;;15.23;10.33;;;10.10;99.90;;;;;;5019199;28;20475;-76
2021/10/22 09:59:26;;;;;;;9.10;7.93;;;10.10;99.90;;;;;;5009523;28;20480;-73
2021/10/22 10:01:57;;;;;;;5.33;3.77;;;10.20;99.90;;;;;;5036043;28;20446;-73
2021/10/22 10:04:24;;;;;;;6.60;2.90;;;10.30;99.90;;;;;;5012935;28;20463;-73
2021/10/22 10:06:51;;;;;;;5.37;3.50;;;10.40;99.90;;;;;;5002526;28;20452;-73
2021/10/22 10:09:19;;;;;;;14.53;3.77;;;10.40;99.90;;;;;;5023316;28;20501;-73
2021/10/22 10:11:45;;;;;;;4.07;3.00;;;10.50;99.90;;;;;;4991075;28;20475;-73
2021/10/22 10:14:14;;;;;;;1.97;1.60;;;10.50;99.90;;;;;;4981805;28;20499;-74
2021/10/22 10:16:40;;;;;;;2.90;1.50;;;10.60;99.90;;;;;;5020911;28;20544;-76
2021/10/22 10:19:09;;;;;;;3.20;2.17;;;10.70;99.90;;;;;;5025387;28;20585;-74
2021/10/22 10:21:49;;;;;;;2.60;2.27;;;10.80;99.90;;;;;;5008264;28;20484;-73
2021/10/22 10:24:19;;;;;;;5.10;1.80;;;10.80;99.90;;;;;;5021438;28;20459;-73
2021/10/22 10:27:00;;;;;;;7.03;2.40;;;10.80;99.90;;;;;;5021407;28;20454;-73
2021/10/22 10:29:36;;;;;;;3.27;1.83;;;10.80;99.90;;;;;;5025015;28;20836;-74
2021/10/22 10:32:06;;;;;;;4.30;2.30;;;10.90;99.90;;;;;;5006400;28;20592;-77
2021/10/22 10:34:39;;;;;;;3.53;3.17;;;10.90;99.90;;;;;;5012505;28;20459;-73
2021/10/22 10:37:19;;;;;;;3.10;2.80;;;10.90;99.90;;;;;;5025378;28;20475;-75
2021/10/22 10:39:48;;;;;;;4.40;2.60;;;10.90;99.90;;;;;;5007431;28;20825;-73
2021/10/22 10:42:21;;;;;;;3.43;3.17;;;10.90;99.90;;;;;;5001471;28;20462;-75
2021/10/22 10:44:47;;;;;;;3.70;3.40;;;10.90;99.90;;;;;;5024377;28;20455;-74
2021/10/22 10:47:29;;;;;;;11.43;2.63;;;10.80;99.90;;;;;;5013063;28;20463;-73
2021/10/22 10:49:55;;;;;;;2.50;2.30;;;10.80;99.90;;;;;;5023712;28;20462;-73
2021/10/22 10:52:42;;;;;;;8.63;4.43;;;10.80;99.90;;;;;;5025818;28;20638;-73
2021/10/22 10:55:31;;;;;;;10.43;4.30;;;10.80;99.90;;;;;;5025334;28;20224;-74
2021/10/22 10:58:09;;;;;;;11.70;7.20;;;10.80;99.90;;;;;;5009682;28;20467;-74
2021/10/22 11:00:39;;;;;;;8.00;4.53;;;10.90;99.90;;;;;;5009827;28;20481;-73
2021/10/22 11:03:06;;;;;;;9.83;4.50;;;10.90;99.90;;;;;;5009709;28;20679;-73
2021/10/22 11:05:47;;;;;;;4.87;3.33;;;10.90;99.90;;;;;;5007038;28;20995;-75
2021/10/22 11:08:42;;;;;;;3.50;2.13;;;11.00;99.90;;;;;;4994108;28;20467;-73
2021/10/22 11:11:29;;;;;;;4.17;1.70;;;11.10;99.90;;;;;;5008100;28;20455;-73
2021/10/22 11:14:10;;;;;;;2.77;1.47;;;11.20;99.90;;;;;;5012812;28;20960;-73
2021/10/22 11:16:49;;;;;;;2.60;1.73;;;11.30;99.90;;;;;;5004491;28;20565;-73
2021/10/22 11:19:31;;;;;;;4.00;1.63;;;11.40;99.90;;;;;;5020418;28;20489;-73
2021/10/22 11:22:08;;;;;;;3.60;1.60;;;11.50;99.90;;;;;;5000940;28;20459;-72
2021/10/22 11:24:36;;;;;;;4.73;2.07;;;11.60;99.90;;;;;;5024623;28;20458;-74
2021/10/22 11:27:11;;;;;;;1.90;1.10;;;11.60;99.90;;;;;;5011579;28;20462;-73
2021/10/22 11:29:44;;;;;;;2.70;1.40;;;11.70;99.90;;;;;;5009341;28;20845;-73
2021/10/22 11:32:15;;;;;;;5.07;1.50;;;11.70;99.90;;;;;;4999688;28;20451;-73
2021/10/22 11:34:45;;;;;;;5.00;2.10;;;11.70;99.90;;;;;;4991922;28;20491;-73
2021/10/22 11:37:18;;;;;;;3.00;1.70;;;11.90;99.90;;;;;;5004374;28;20514;-73
2021/10/22 11:39:49;;;;;;;4.03;2.40;;;11.90;99.90;;;;;;4998021;28;20454;-70
2021/10/22 11:42:36;;;;;;;6.53;1.67;;;12.00;99.90;;;;;;5004401;28;20521;-70
2021/10/22 11:45:12;;;;;;;2.07;1.80;;;12.20;99.90;;;;;;5006118;28;20459;-71
2021/10/22 11:47:49;;;;;;;3.23;1.77;;;12.20;99.90;;;;;;4994677;28;20467;-71
2021/10/22 11:50:24;;;;;;;1.50;1.20;;;12.20;99.90;;;;;;5034305;28;20461;-71
2021/10/22 11:53:11;;;;;;;4.07;1.67;;;12.30;99.90;;;;;;5019207;28;20454;-71
2021/10/22 11:55:38;;;;;;;6.53;5.03;;;12.30;99.90;;;;;;5023492;28;20969;-72
2021/10/22 11:58:05;;;;;;;11.47;7.40;;;12.30;99.90;;;;;;5001632;28;20502;-73
2021/10/22 12:00:32;;;;;;;6.30;4.80;;;12.30;99.90;;;;;;4989608;28;20882;-71
2021/10/22 12:02:58;;;;;;;7.37;5.40;;;12.30;99.90;;;;;;5026365;28;20839;-71
2021/10/22 12:05:25;;;;;;;3.60;2.80;;;12.20;99.90;;;;;;4997612;28;20565;-71
2021/10/22 12:07:54;;;;;;;13.53;8.70;;;12.20;99.90;;;;;;4996807;28;20455;-71
2021/10/22 12:10:21;;;;;;;18.33;11.70;;;12.10;99.90;;;;;;4992499;28;20467;-71
2021/10/22 12:12:53;;;;;;;12.10;6.10;;;12.10;99.90;;;;;;5007453;28;20454;-73
2021/10/22 12:15:30;;;;;;;9.37;6.00;;;12.00;99.90;;;;;;5024250;28;20552;-70
2021/10/22 12:18:01;;;;;;;3.13;2.80;;;12.10;99.90;;;;;;5000127;28;20499;-71
2021/10/22 12:20:28;;;;;;;3.10;2.07;;;12.10;99.90;;;;;;4992707;28;20467;-71
2021/10/22 12:22:57;;;;;;;1.90;1.00;;;12.10;99.90;;;;;;4993801;28;20469;-72
2021/10/22 12:25:24;;;;;;;4.87;1.27;;;12.10;99.90;;;;;;5033185;28;21031;-71
2021/10/22 12:27:51;;;;;;;1.30;0.80;;;12.10;99.90;;;;;;5010236;28;20538;-71
2021/10/22 12:30:26;;;;;;;2.67;1.20;;;12.00;99.90;;;;;;5010811;28;20451;-71
2021/10/22 12:33:06;;;;;;;2.67;1.60;;;12.00;99.90;;;;;;5007081;28;20461;-73
2021/10/22 12:35:44;;;;;;;1.60;1.50;;;11.90;99.90;;;;;;5005242;28;20502;-71
2021/10/22 12:38:18;;;;;;;5.27;1.60;;;11.90;99.90;;;;;;5011615;28;20467;-71
2021/10/22 12:40:52;;;;;;;8.03;4.27;;;11.90;99.90;;;;;;4991383;28;20466;-72
2021/10/22 12:43:27;;;;;;;18.57;11.97;;;11.90;99.90;;;;;;4992310;28;20478;-71
2021/10/22 12:46:06;;;;;;;44.00;24.87;;;12.00;99.90;;;;;;5015137;28;20458;-72
2021/10/22 12:48:44;;;;;;;22.07;12.73;;;12.00;99.90;;;;;;4986133;28;20467;-71
2021/10/22 12:51:13;;;;;;;30.40;16.50;;;12.00;99.90;;;;;;4992963;28;20471;-72
2021/10/22 12:53:42;;;;;;;51.87;27.37;;;12.00;99.90;;;;;;5006772;28;20479;-71
2021/10/22 12:56:26;;;;;;;38.13;20.37;;;11.90;99.90;;;;;;5001129;28;20472;-71
2021/10/22 12:58:57;;;;;;;5.83;4.00;;;11.90;99.90;;;;;;5023574;28;21096;-71
2021/10/22 13:01:31;;;;;;;5.60;4.07;;;11.90;99.90;;;;;;5035125;28;20535;-71
2021/10/22 13:04:12;;;;;;;3.13;2.83;;;11.80;99.90;;;;;;4982683;28;20459;-70
2021/10/22 13:07:11;;;;;;;2.70;2.27;;;11.70;99.90;;;;;;4995525;28;20531;-70
2021/10/22 13:15:05;;;;;;;10.10;6.80;;;11.60;99.90;;;;;;5025995;28;20465;-72